createdAt,value
2023-02-21T00:00:19.009Z,1.43
2023-02-21T00:03:05.205Z,1.63
2023-02-21T00:05:51.484Z,2.72
2023-02-21T00:08:37.252Z,3.40
2023-02-21T00:11:24.053Z,3.85
2023-02-21T00:14:09.759Z,4.55
2023-02-21T00:16:55.724Z,4.47
2023-02-21T00:19:41.830Z,4.72
2023-02-21T00:22:28.976Z,4.53
2023-02-21T00:25:14.898Z,3.65
2023-02-21T00:28:01.265Z,3.60
2023-02-21T00:30:47.001Z,2.83
2023-02-21T00:33:32.658Z,2.30
2023-02-21T00:36:18.434Z,1.85
2023-02-21T00:39:04.484Z,1.80
2023-02-21T00:41:50.449Z,1.50
2023-02-21T00:44:36.712Z,1.67
2023-02-21T00:47:22.803Z,0.95
2023-02-21T00:50:08.945Z,1.30
2023-02-21T00:52:54.889Z,1.10
2023-02-21T00:55:40.997Z,1.33
2023-02-21T00:58:27.011Z,1.20
2023-02-21T01:01:13.372Z,1.30
2023-02-21T01:03:59.399Z,1.65
2023-02-21T01:06:45.025Z,1.30
2023-02-21T01:09:31.015Z,1.33
2023-02-21T01:12:17.013Z,1.67
2023-02-21T01:15:03.074Z,1.05
2023-02-21T01:17:48.922Z,0.80
2023-02-21T01:20:34.578Z,0.63
2023-02-21T01:23:20.688Z,0.77
2023-02-21T01:26:06.662Z,0.50
2023-02-21T01:28:52.622Z,0.75
2023-02-21T01:31:39.067Z,0.70
2023-02-21T01:34:25.143Z,0.90
2023-02-21T01:37:10.857Z,0.93
2023-02-21T01:39:57.017Z,0.82
2023-02-21T01:42:43.280Z,0.57
2023-02-21T01:45:41.688Z,0.70
2023-02-21T01:48:28.174Z,1.17
2023-02-21T01:51:14.132Z,1.23
2023-02-21T01:53:59.770Z,0.75
2023-02-21T01:56:45.370Z,0.95
2023-02-21T01:59:30.982Z,0.80
2023-02-21T02:02:23.950Z,1.05
2023-02-21T02:05:09.923Z,1.38
2023-02-21T02:07:55.558Z,0.98
2023-02-21T02:10:41.265Z,1.20
2023-02-21T02:13:11.384Z,1.77
2023-02-21T02:15:46.912Z,1.05
2023-02-21T02:18:34.368Z,1.60
2023-02-21T02:21:07.809Z,1.05
2023-02-21T02:23:53.875Z,2.17
2023-02-21T02:26:27.038Z,1.52
2023-02-21T02:29:00.049Z,1.60
2023-02-21T02:31:42.334Z,1.60
2023-02-21T02:34:42.029Z,1.30
2023-02-21T02:37:18.069Z,1.20
2023-02-21T02:39:57.546Z,1.77
2023-02-21T02:42:48.028Z,1.90
2023-02-21T02:45:24.467Z,1.60
2023-02-21T02:47:53.341Z,1.23
2023-02-21T02:50:20.489Z,1.15
2023-02-21T02:52:51.587Z,1.47
2023-02-21T02:55:21.825Z,1.02
2023-02-21T02:57:48.980Z,1.10
2023-02-21T03:00:16.622Z,1.20
2023-02-21T03:03:03.559Z,1.30
2023-02-21T03:05:30.685Z,1.35
2023-02-21T03:08:03.515Z,1.50
2023-02-21T03:10:30.634Z,1.40
2023-02-21T03:13:11.113Z,1.70
2023-02-21T03:15:38.312Z,1.48
2023-02-21T03:18:10.895Z,1.73
2023-02-21T03:20:38.124Z,1.73
2023-02-21T03:23:05.282Z,1.40
2023-02-21T03:25:32.595Z,1.30
2023-02-21T03:27:59.744Z,2.03
2023-02-21T03:30:26.954Z,1.45
2023-02-21T03:32:54.162Z,2.10
2023-02-21T03:35:21.434Z,2.60
2023-02-21T03:37:49.957Z,1.90
2023-02-21T03:40:24.412Z,2.10
2023-02-21T03:42:52.123Z,1.35
2023-02-21T03:45:19.307Z,1.97
2023-02-21T03:47:46.502Z,2.10
2023-02-21T03:50:13.975Z,1.98
2023-02-21T03:52:41.125Z,2.03
2023-02-21T03:55:08.564Z,2.17
2023-02-21T03:57:35.770Z,1.58
2023-02-21T04:00:03.102Z,1.52
2023-02-21T04:02:30.395Z,1.80
2023-02-21T04:04:57.539Z,2.35
2023-02-21T04:07:24.696Z,1.58
2023-02-21T04:09:51.911Z,2.00
2023-02-21T04:12:19.064Z,2.17
2023-02-21T04:14:46.281Z,2.33
2023-02-21T04:17:13.523Z,2.35
2023-02-21T04:19:40.664Z,2.20
2023-02-21T04:22:07.844Z,1.70
2023-02-21T04:24:34.979Z,2.42
2023-02-21T04:27:02.396Z,1.80
2023-02-21T04:29:29.619Z,1.80
2023-02-21T04:31:56.937Z,2.20
2023-02-21T04:34:24.209Z,2.97
2023-02-21T04:36:51.437Z,1.80
2023-02-21T04:39:18.624Z,2.05
2023-02-21T04:41:45.809Z,2.20
2023-02-21T04:44:13.130Z,1.52
2023-02-21T04:46:40.340Z,2.35
2023-02-21T04:49:07.469Z,2.00
2023-02-21T04:51:34.625Z,1.98
2023-02-21T04:54:01.832Z,1.63
2023-02-21T04:56:29.268Z,2.38
2023-02-21T04:58:56.646Z,2.33
2023-02-21T05:01:23.997Z,2.60
2023-02-21T05:03:51.301Z,2.47
2023-02-21T05:06:21.124Z,2.10
2023-02-21T05:08:48.307Z,1.70
2023-02-21T05:11:15.847Z,2.28
2023-02-21T05:13:43.395Z,2.75
2023-02-21T05:16:10.814Z,3.17
2023-02-21T05:18:38.581Z,2.25
2023-02-21T05:21:08.506Z,2.45
2023-02-21T05:23:36.704Z,2.55
2023-02-21T05:26:06.668Z,2.17
2023-02-21T05:28:33.828Z,2.47
2023-02-21T05:31:01.424Z,2.33
2023-02-21T05:33:28.724Z,3.05
2023-02-21T05:35:55.904Z,1.92
2023-02-21T05:38:23.623Z,2.30
2023-02-21T05:40:50.787Z,2.35
2023-02-21T05:43:18.030Z,2.70
2023-02-21T05:45:45.428Z,2.53
2023-02-21T05:48:12.837Z,3.67
2023-02-21T05:50:40.135Z,3.13
2023-02-21T05:53:09.914Z,2.58
2023-02-21T05:55:37.564Z,2.45
2023-02-21T05:58:04.941Z,2.40
2023-02-21T06:00:32.303Z,3.38
2023-02-21T06:03:00.105Z,2.97
2023-02-21T06:05:29.552Z,2.38
2023-02-21T06:07:56.718Z,3.55
2023-02-21T06:10:23.936Z,3.10
2023-02-21T06:12:51.083Z,3.42
2023-02-21T06:15:18.310Z,2.80
2023-02-21T06:17:45.570Z,2.42
2023-02-21T06:20:14.585Z,3.75
2023-02-21T06:22:41.782Z,2.43
2023-02-21T06:25:09.001Z,3.33
2023-02-21T06:27:36.222Z,3.35
2023-02-21T06:30:03.991Z,3.10
2023-02-21T06:32:31.179Z,2.63
2023-02-21T06:34:58.390Z,3.60
2023-02-21T06:37:25.519Z,2.83
2023-02-21T06:39:52.699Z,3.08
2023-02-21T06:42:19.896Z,2.67
2023-02-21T06:44:47.371Z,3.00
2023-02-21T06:47:14.786Z,3.47
2023-02-21T06:49:41.972Z,2.78
2023-02-21T06:52:09.223Z,3.10
2023-02-21T06:54:36.511Z,3.55
2023-02-21T06:57:03.692Z,3.38
2023-02-21T06:59:30.845Z,4.07
2023-02-21T07:01:58.159Z,4.28
2023-02-21T07:04:25.429Z,4.00
2023-02-21T07:06:52.613Z,3.90
2023-02-21T07:09:19.814Z,3.72
2023-02-21T07:11:47.218Z,4.20
2023-02-21T07:14:14.536Z,3.60
2023-02-21T07:16:42.031Z,3.95
2023-02-21T07:19:09.254Z,3.72
2023-02-21T07:24:03.521Z,3.88
2023-02-21T07:26:30.715Z,3.67
2023-02-21T07:28:57.922Z,3.77
2023-02-21T07:31:25.170Z,3.47
2023-02-21T07:33:52.794Z,3.72
2023-02-21T07:36:19.964Z,3.65
2023-02-21T07:38:47.104Z,4.15
2023-02-21T07:41:14.691Z,3.65
2023-02-21T07:43:42.133Z,4.35
2023-02-21T07:46:12.873Z,4.30
2023-02-21T07:48:40.197Z,4.43
2023-02-21T07:51:07.772Z,3.50
2023-02-21T07:53:34.986Z,4.63
2023-02-21T07:56:02.368Z,3.22
2023-02-21T07:58:29.549Z,5.10
2023-02-21T08:00:56.758Z,3.88
2023-02-21T08:03:23.920Z,3.92
2023-02-21T08:05:51.110Z,3.88
2023-02-21T08:08:18.271Z,4.38
2023-02-21T08:10:46.039Z,3.85
2023-02-21T08:13:13.176Z,4.38
2023-02-21T08:15:40.378Z,5.07
2023-02-21T08:18:07.537Z,3.88
2023-02-21T08:20:35.206Z,4.50
2023-02-21T08:23:02.408Z,3.55
2023-02-21T08:25:29.539Z,4.70
2023-02-21T08:27:56.722Z,5.90
2023-02-21T08:30:25.316Z,4.05
2023-02-21T08:32:52.543Z,3.70
2023-02-21T08:35:19.989Z,3.85
2023-02-21T08:37:47.727Z,3.85
2023-02-21T08:40:15.138Z,4.43
2023-02-21T08:42:42.361Z,3.67
2023-02-21T08:45:10.834Z,4.40
2023-02-21T08:47:38.022Z,4.72
2023-02-21T08:50:05.362Z,3.73
2023-02-21T08:52:32.516Z,3.93
2023-02-21T08:54:59.672Z,3.88
2023-02-21T08:57:26.873Z,4.57
2023-02-21T08:59:54.844Z,3.97
2023-02-21T09:02:25.313Z,4.07
2023-02-21T09:04:52.631Z,5.72
2023-02-21T09:07:20.275Z,4.57
2023-02-21T09:09:47.431Z,4.72
2023-02-21T09:12:14.603Z,5.35
2023-02-21T09:14:42.284Z,4.65
2023-02-21T09:17:10.251Z,4.15
2023-02-21T09:19:37.439Z,3.85
2023-02-21T09:22:04.629Z,4.80
2023-02-21T09:24:31.938Z,5.30
2023-02-21T09:26:59.540Z,5.10
2023-02-21T09:29:31.703Z,4.78
2023-02-21T09:32:04.463Z,5.03
2023-02-21T09:34:31.688Z,4.80
2023-02-21T09:36:59.777Z,5.32
2023-02-21T09:39:26.999Z,5.03
2023-02-21T09:41:57.349Z,3.97
2023-02-21T09:44:25.661Z,4.15
2023-02-21T09:46:53.828Z,4.82
2023-02-21T09:49:25.371Z,5.47
2023-02-21T09:51:52.747Z,4.75
2023-02-21T09:54:23.908Z,4.70
2023-02-21T09:56:51.046Z,4.68
2023-02-21T09:59:18.315Z,3.80
2023-02-21T10:01:51.503Z,4.50
2023-02-21T10:04:45.028Z,4.82
2023-02-21T10:07:15.072Z,5.07
2023-02-21T10:09:42.191Z,4.18
2023-02-21T10:12:18.203Z,5.50
2023-02-21T10:14:54.560Z,4.53
2023-02-21T10:17:23.550Z,3.90
2023-02-21T10:19:55.131Z,5.47
2023-02-21T10:22:23.372Z,4.75
2023-02-21T10:24:51.173Z,4.60
2023-02-21T10:27:19.757Z,4.80
2023-02-21T10:29:49.700Z,4.40
2023-02-21T10:32:17.114Z,4.18
2023-02-21T10:34:47.224Z,5.67
2023-02-21T10:37:34.321Z,5.72
2023-02-21T10:40:02.185Z,5.47
2023-02-21T10:42:55.727Z,4.28
2023-02-21T10:45:25.070Z,4.93
2023-02-21T10:48:01.993Z,5.95
2023-02-21T10:50:38.373Z,3.75
2023-02-21T10:53:05.607Z,6.65
2023-02-21T10:55:33.710Z,4.35
2023-02-21T10:58:07.105Z,4.68
2023-02-21T11:00:38.704Z,4.07
2023-02-21T11:03:13.816Z,4.85
2023-02-21T11:05:41.070Z,4.82
2023-02-21T11:08:09.243Z,4.07
2023-02-21T11:10:37.793Z,4.50
2023-02-21T11:13:06.349Z,4.80
2023-02-21T11:15:33.610Z,5.47
2023-02-21T11:18:04.877Z,4.97
2023-02-21T11:20:32.094Z,4.80
2023-02-21T11:22:59.229Z,5.35
2023-02-21T11:25:26.463Z,4.97
2023-02-21T11:28:06.868Z,5.22
2023-02-21T11:30:35.808Z,4.55
2023-02-21T11:33:04.699Z,4.88
2023-02-21T11:35:52.146Z,4.63
2023-02-21T11:38:43.358Z,4.43
2023-02-21T11:41:29.431Z,4.88
2023-02-21T11:43:56.830Z,4.83
2023-02-21T11:46:33.598Z,4.60
2023-02-21T11:49:16.088Z,4.38
2023-02-21T11:51:43.305Z,3.92
2023-02-21T11:54:10.451Z,4.72
2023-02-21T11:56:49.264Z,5.07
2023-02-21T11:59:35.351Z,4.28
2023-02-21T12:02:25.939Z,4.40
2023-02-21T12:04:57.167Z,5.45
2023-02-21T12:07:24.335Z,5.35
2023-02-21T12:09:52.115Z,5.25
2023-02-21T12:12:28.613Z,5.05
2023-02-21T12:15:01.097Z,4.80
2023-02-21T12:17:44.746Z,4.30
2023-02-21T12:20:33.840Z,4.63
2023-02-21T12:23:16.418Z,3.93
2023-02-21T12:25:47.388Z,4.97
2023-02-21T12:28:34.819Z,4.85
2023-02-21T12:31:02.111Z,5.18
2023-02-21T12:33:29.280Z,4.47
2023-02-21T12:36:06.677Z,4.93
2023-02-21T12:38:39.702Z,4.78
2023-02-21T12:41:10.176Z,4.30
2023-02-21T12:43:37.792Z,4.57
2023-02-21T12:46:20.367Z,4.22
2023-02-21T12:48:52.891Z,5.93
2023-02-21T12:51:21.381Z,4.60
2023-02-21T12:53:50.482Z,4.70
2023-02-21T12:56:47.138Z,4.55
2023-02-21T12:59:14.281Z,6.10
2023-02-21T13:01:44.023Z,4.90
2023-02-21T13:04:30.011Z,4.35
2023-02-21T13:06:59.920Z,4.82
2023-02-21T13:09:27.072Z,4.47
2023-02-21T13:12:20.546Z,4.28
2023-02-21T13:15:01.661Z,4.30
2023-02-21T13:17:28.806Z,3.70
2023-02-21T13:20:08.812Z,4.43
2023-02-21T13:23:13.574Z,3.42
2023-02-21T13:25:43.529Z,4.88
2023-02-21T13:28:10.753Z,4.43
2023-02-21T13:30:38.161Z,5.05
2023-02-21T13:33:06.062Z,4.70
2023-02-21T13:35:39.782Z,4.85
2023-02-21T13:38:07.892Z,4.68
2023-02-21T13:40:36.455Z,4.85
2023-02-21T13:43:03.723Z,3.87
2023-02-21T13:45:31.047Z,4.07
2023-02-21T13:48:00.992Z,4.68
2023-02-21T13:50:42.535Z,3.85
2023-02-21T13:53:13.158Z,3.70
2023-02-21T13:55:40.396Z,4.65
2023-02-21T13:58:07.564Z,4.43
2023-02-21T14:00:34.787Z,4.25
2023-02-21T14:03:09.734Z,4.35
2023-02-21T14:05:47.623Z,6.05
2023-02-21T14:08:15.446Z,3.60
2023-02-21T14:10:46.697Z,4.78
2023-02-21T14:13:25.679Z,5.35
2023-02-21T14:15:58.483Z,4.72
2023-02-21T14:18:26.745Z,4.82
2023-02-21T14:20:55.269Z,3.97
2023-02-21T14:23:23.441Z,5.35
2023-02-21T14:26:17.082Z,4.05
2023-02-21T14:28:59.333Z,4.35
2023-02-21T14:31:47.226Z,5.20
2023-02-21T14:34:14.583Z,4.30
2023-02-21T14:36:41.740Z,3.72
2023-02-21T14:39:08.947Z,5.15
2023-02-21T14:41:39.186Z,4.17
2023-02-21T14:44:25.116Z,4.85
2023-02-21T14:47:18.570Z,5.28
2023-02-21T14:49:48.797Z,4.78
2023-02-21T14:52:15.927Z,4.90
2023-02-21T14:55:01.786Z,4.88
2023-02-21T14:57:35.574Z,4.60
2023-02-21T15:00:03.765Z,4.78
2023-02-21T15:02:51.255Z,4.50
2023-02-21T15:05:18.482Z,5.43
2023-02-21T15:07:48.424Z,5.25
2023-02-21T15:10:18.474Z,5.95
2023-02-21T15:12:47.011Z,3.70
2023-02-21T15:15:15.541Z,5.05
2023-02-21T15:17:42.785Z,6.35
2023-02-21T15:20:18.877Z,3.97
2023-02-21T15:22:46.092Z,6.43
2023-02-21T15:25:17.130Z,4.80
2023-02-21T15:27:50.965Z,5.00
2023-02-21T15:30:47.869Z,4.80
2023-02-21T15:33:17.037Z,7.90
2023-02-21T15:35:49.894Z,6.23
2023-02-21T15:38:18.614Z,8.75
2023-02-21T15:40:45.829Z,12.27
2023-02-21T15:43:20.962Z,8.02
2023-02-21T15:45:51.216Z,9.50
2023-02-21T15:48:18.507Z,9.05
2023-02-21T15:50:46.718Z,6.43
2023-02-21T15:53:20.822Z,9.40
2023-02-21T15:55:49.058Z,10.80
2023-02-21T15:58:17.588Z,11.07
2023-02-21T16:00:48.767Z,9.33
2023-02-21T16:03:32.668Z,9.88
2023-02-21T16:06:09.085Z,6.30
2023-02-21T16:08:36.610Z,8.57
2023-02-21T16:11:04.191Z,9.85
2023-02-21T16:13:38.526Z,9.37
2023-02-21T16:16:06.081Z,7.87
2023-02-21T16:18:33.407Z,10.02
2023-02-21T16:21:01.720Z,5.28
2023-02-21T16:23:31.940Z,7.43
2023-02-21T16:26:13.078Z,16.40
2023-02-21T16:28:40.736Z,5.95
2023-02-21T16:31:12.547Z,7.55
2023-02-21T16:33:39.768Z,4.32
2023-02-21T16:36:08.082Z,4.28
2023-02-21T16:38:35.694Z,3.45
2023-02-21T16:41:03.487Z,4.63
2023-02-21T16:43:30.730Z,3.78
2023-02-21T16:45:58.226Z,4.30
2023-02-21T16:48:28.582Z,4.00
2023-02-21T16:50:55.890Z,8.25
2023-02-21T16:53:23.109Z,4.83
2023-02-21T16:55:50.269Z,4.40
2023-02-21T16:58:23.937Z,4.93
2023-02-21T17:00:52.387Z,4.43
2023-02-21T17:03:19.718Z,19.17
2023-02-21T17:05:46.980Z,9.43
2023-02-21T17:08:14.478Z,6.93
2023-02-21T17:10:41.692Z,6.40
2023-02-21T17:13:08.850Z,5.83
2023-02-21T17:15:36.147Z,4.95
2023-02-21T17:18:03.336Z,4.63
2023-02-21T17:20:30.529Z,3.92
2023-02-21T17:23:01.789Z,4.93
2023-02-21T17:25:29.228Z,5.18
2023-02-21T17:27:56.536Z,4.18
2023-02-21T17:30:24.631Z,4.13
2023-02-21T17:32:51.976Z,5.83
2023-02-21T17:35:20.029Z,3.97
2023-02-21T17:37:50.130Z,3.90
2023-02-21T17:40:17.785Z,3.63
2023-02-21T17:42:44.922Z,3.70
2023-02-21T17:45:12.143Z,3.50
2023-02-21T17:47:39.425Z,3.63
2023-02-21T17:50:06.932Z,3.90
2023-02-21T17:52:34.125Z,3.42
2023-02-21T17:55:07.455Z,3.70
2023-02-21T17:57:37.303Z,3.65
2023-02-21T18:00:08.782Z,3.58
2023-02-21T18:02:36.471Z,3.38
2023-02-21T18:05:03.735Z,3.60
2023-02-21T18:07:32.774Z,2.45
2023-02-21T18:10:03.987Z,4.68
2023-02-21T18:12:33.293Z,4.93
2023-02-21T18:15:00.848Z,5.30
2023-02-21T18:17:28.042Z,5.35
2023-02-21T18:19:55.167Z,4.30
2023-02-21T18:22:22.346Z,4.90
2023-02-21T18:24:49.649Z,4.10
2023-02-21T18:27:16.941Z,4.47
2023-02-21T18:29:44.120Z,4.70
2023-02-21T18:32:11.312Z,4.57
2023-02-21T18:34:38.539Z,4.32
2023-02-21T18:37:08.281Z,6.05
2023-02-21T18:39:35.527Z,5.40
2023-02-21T18:42:02.726Z,5.20
2023-02-21T18:44:29.869Z,5.22
2023-02-21T18:46:59.255Z,3.90
2023-02-21T18:49:26.823Z,4.80
2023-02-21T18:51:54.177Z,4.23
2023-02-21T18:54:21.450Z,4.43
2023-02-21T18:56:49.153Z,4.80
2023-02-21T18:59:17.336Z,4.72
2023-02-21T19:01:44.502Z,5.07
2023-02-21T19:04:11.745Z,3.87
2023-02-21T19:06:38.975Z,4.50
2023-02-21T19:09:06.233Z,4.65
2023-02-21T19:11:33.424Z,4.13
2023-02-21T19:14:00.632Z,4.85
2023-02-21T19:16:28.136Z,4.50
2023-02-21T19:18:59.320Z,5.43
2023-02-21T19:21:27.707Z,3.90
2023-02-21T19:23:55.005Z,6.28
2023-02-21T19:26:22.166Z,5.63
2023-02-21T19:28:49.567Z,4.55
2023-02-21T19:31:20.125Z,5.32
2023-02-21T19:33:47.961Z,5.40
2023-02-21T19:36:15.333Z,4.82
2023-02-21T19:38:42.539Z,4.72
2023-02-21T19:41:09.900Z,5.50
2023-02-21T19:43:37.205Z,4.32
2023-02-21T19:46:04.771Z,4.28
2023-02-21T19:48:31.985Z,3.80
2023-02-21T19:50:59.621Z,3.97
2023-02-21T19:53:26.899Z,3.97
2023-02-21T19:55:54.282Z,4.60
2023-02-21T19:58:21.847Z,4.50
2023-02-21T20:00:50.000Z,4.45
2023-02-21T20:03:17.164Z,4.15
2023-02-21T20:05:44.400Z,5.35
2023-02-21T20:08:11.589Z,4.22
2023-02-21T20:10:38.807Z,4.15
2023-02-21T20:13:07.502Z,3.97
2023-02-21T20:15:37.323Z,3.90
2023-02-21T20:18:04.688Z,5.40
2023-02-21T20:20:31.879Z,4.68
2023-02-21T20:23:02.070Z,4.47
2023-02-21T20:25:29.287Z,4.63
2023-02-21T20:27:56.817Z,4.13
2023-02-21T20:30:25.054Z,4.80
2023-02-21T20:32:53.106Z,4.53
2023-02-21T20:35:20.416Z,4.05
2023-02-21T20:37:47.769Z,4.28
2023-02-21T20:40:15.953Z,4.97
2023-02-21T20:42:43.429Z,4.75
2023-02-21T20:45:10.889Z,5.07
2023-02-21T20:47:38.637Z,4.00
2023-02-21T20:50:07.452Z,5.03
2023-02-21T20:52:37.682Z,7.85
2023-02-21T20:55:05.465Z,13.40
2023-02-21T20:57:32.955Z,9.23
2023-02-21T21:00:00.122Z,6.30
2023-02-21T21:02:27.749Z,6.30
2023-02-21T21:04:55.531Z,4.27
2023-02-21T21:07:24.467Z,3.90
2023-02-21T21:09:51.714Z,4.55
2023-02-21T21:12:19.980Z,4.47
2023-02-21T21:14:47.660Z,3.80
2023-02-21T21:17:16.117Z,4.68
2023-02-21T21:19:43.902Z,5.22
2023-02-21T21:22:12.339Z,4.27
2023-02-21T21:24:39.593Z,4.25
2023-02-21T21:27:09.954Z,4.67
2023-02-21T21:29:37.887Z,3.58
2023-02-21T21:32:05.585Z,5.82
2023-02-21T21:34:33.274Z,4.78
2023-02-21T21:37:01.326Z,5.03
2023-02-21T21:39:28.688Z,4.70
2023-02-21T21:41:58.635Z,4.20
2023-02-21T21:44:26.242Z,4.22
2023-02-21T21:46:53.693Z,4.72
2023-02-21T21:49:22.338Z,4.68
2023-02-21T21:51:49.885Z,3.72
2023-02-21T21:54:20.615Z,3.42
2023-02-21T21:56:48.597Z,4.47
2023-02-21T21:59:23.816Z,3.28
2023-02-21T22:01:51.302Z,3.80
2023-02-21T22:04:19.192Z,3.27
2023-02-21T22:06:46.554Z,4.30
2023-02-21T22:09:16.954Z,4.30
2023-02-21T22:11:45.471Z,4.70
2023-02-21T22:14:13.533Z,3.83
2023-02-21T22:16:41.493Z,4.15
2023-02-21T22:19:08.729Z,3.88
2023-02-21T22:21:36.266Z,3.55
2023-02-21T22:24:03.762Z,4.57
2023-02-21T22:26:31.197Z,3.35
2023-02-21T22:28:58.483Z,3.30
2023-02-21T22:31:30.122Z,3.88
2023-02-21T22:33:59.374Z,4.57
2023-02-21T22:36:26.684Z,3.90
2023-02-21T22:38:54.905Z,3.83
2023-02-21T22:41:25.804Z,4.00
2023-02-21T22:43:53.326Z,3.75
2023-02-21T22:46:21.443Z,4.18
2023-02-21T22:48:50.242Z,5.30
2023-02-21T22:51:18.124Z,6.40
2023-02-21T22:53:51.483Z,5.95
2023-02-21T22:56:25.913Z,5.00
2023-02-21T22:58:57.000Z,4.30
2023-02-21T23:01:26.627Z,4.68
2023-02-21T23:04:10.918Z,3.60
2023-02-21T23:06:38.605Z,3.55
2023-02-21T23:09:12.274Z,3.60
2023-02-21T23:11:43.830Z,3.33
2023-02-21T23:14:11.156Z,2.72
2023-02-21T23:16:38.497Z,3.95
2023-02-21T23:19:07.009Z,5.00
2023-02-21T23:21:34.517Z,4.00
2023-02-21T23:24:01.651Z,3.10
2023-02-21T23:26:31.053Z,3.42
2023-02-21T23:28:58.301Z,3.35
2023-02-21T23:31:25.689Z,3.03
2023-02-21T23:33:54.148Z,3.15
2023-02-21T23:36:24.187Z,3.92
2023-02-21T23:38:51.474Z,2.55
2023-02-21T23:41:20.750Z,3.30
2023-02-21T23:43:47.957Z,2.65
2023-02-21T23:46:20.563Z,2.97
2023-02-21T23:48:47.783Z,2.35
2023-02-21T23:51:15.388Z,2.20
2023-02-21T23:53:42.981Z,2.83
2023-02-21T23:56:13.130Z,2.92
2023-02-21T23:58:44.446Z,2.22
